Time;durP1;ratioP1;P1;durP2;ratioP2;P2;SDS_P1;SDS_P2;PMS_P1;PMS_P2;Temp;Humidity;BMP_temperature;BMP_pressure;BME280_temperature;BME280_humidity;BME280_pressure;Samples;Min_cycle;Max_cycle;Signal;HPM_P1;HPM_P2
2023/02/09 00:02:08;;;;;;;43.25;19.55;;;;;;;;;;5029285;28;20056;-89
2023/02/09 00:04:35;;;;;;;40.65;20.05;;;;;;;;;;5026230;28;20060;-88
2023/02/09 00:07:03;;;;;;;43.97;19.33;;;;;;;;;;5026316;28;20081;-88
2023/02/09 00:09:30;;;;;;;39.00;18.70;;;;;;;;;;5029046;28;20175;-88
2023/02/09 00:14:43;;;;;;;42.17;18.67;;;;;;;;;;5046195;28;20081;-88
2023/02/09 00:17:10;;;;;;;40.05;18.48;;;;;;;;;;5027599;28;20037;-88
2023/02/09 00:19:37;;;;;;;38.47;17.95;;;;;;;;;;5031015;28;20054;-88
2023/02/09 00:22:05;;;;;;;38.33;17.75;;;;;;;;;;5029696;28;20472;-89
2023/02/09 00:24:33;;;;;;;37.97;17.13;;;;;;;;;;5053180;28;20053;-89
2023/02/09 00:27:00;;;;;;;33.67;17.17;;;;;;;;;;5038227;28;20550;-87
2023/02/09 00:29:28;;;;;;;39.03;16.80;;;;;;;;;;5030183;28;20053;-89
2023/02/09 00:31:55;;;;;;;39.17;16.73;;;;;;;;;;5028235;28;20045;-89
2023/02/09 00:34:22;;;;;;;35.55;16.58;;;;;;;;;;5025752;28;20109;-89
2023/02/09 00:36:49;;;;;;;39.05;16.45;;;;;;;;;;5024676;28;20041;-88
2023/02/09 00:39:17;;;;;;;36.97;17.30;;;;;;;;;;5025183;28;20045;-88
2023/02/09 00:44:30;;;;;;;39.00;15.60;;;;;;;;;;5043057;28;20045;-89
2023/02/09 00:46:57;;;;;;;31.90;15.70;;;;;;;;;;5042437;28;20050;-89
2023/02/09 00:49:25;;;;;;;37.47;15.77;;;;;;;;;;5025180;28;20091;-89
2023/02/09 00:51:52;;;;;;;34.05;14.88;;;;;;;;;;5025057;28;20053;-89
2023/02/09 00:54:19;;;;;;;40.20;17.40;;;;;;;;;;5025511;28;20485;-89
2023/02/09 00:56:47;;;;;;;39.65;16.65;;;;;;;;;;5025059;28;20057;-89
2023/02/09 00:59:14;;;;;;;34.65;15.05;;;;;;;;;;5025014;28;20065;-89
2023/02/09 01:01:44;;;;;;;33.22;14.93;;;;;;;;;;5025425;28;20072;-89
2023/02/09 01:04:13;;;;;;;32.40;14.93;;;;;;;;;;5035554;28;20045;-89
2023/02/09 01:06:40;;;;;;;35.00;15.40;;;;;;;;;;5042260;28;20049;-87
2023/02/09 01:09:08;;;;;;;35.63;14.60;;;;;;;;;;5051425;28;20128;-89
2023/02/09 01:11:35;;;;;;;34.08;15.68;;;;;;;;;;5025189;28;20080;-89
2023/02/09 01:14:03;;;;;;;38.38;16.30;;;;;;;;;;5025340;28;20119;-89
2023/02/09 01:16:31;;;;;;;33.22;15.23;;;;;;;;;;5041266;28;20116;-89
2023/02/09 01:19:00;;;;;;;33.22;15.07;;;;;;;;;;5023243;28;20750;-90
2023/02/09 01:21:28;;;;;;;33.17;14.13;;;;;;;;;;5023098;28;20052;-89
2023/02/09 01:23:55;;;;;;;35.03;14.55;;;;;;;;;;5023493;28;20099;-89
2023/02/09 01:26:23;;;;;;;31.73;14.48;;;;;;;;;;5024015;28;20140;-89
2023/02/09 01:28:51;;;;;;;40.78;15.05;;;;;;;;;;5023248;28;20071;-90
2023/02/09 01:31:22;;;;;;;28.77;14.02;;;;;;;;;;5025777;28;20053;-90
2023/02/09 01:33:50;;;;;;;30.92;14.23;;;;;;;;;;5025223;28;20080;-89
2023/02/09 01:36:19;;;;;;;38.08;15.20;;;;;;;;;;5011031;28;20481;-90
2023/02/09 01:38:47;;;;;;;29.48;14.05;;;;;;;;;;5024019;28;20573;-90
2023/02/09 01:41:16;;;;;;;30.27;14.25;;;;;;;;;;5025286;28;20749;-90
2023/02/09 01:44:11;;;;;;;30.27;13.93;;;;;;;;;;5030438;28;20046;-91
2023/02/09 01:46:40;;;;;;;33.42;15.07;;;;;;;;;;5007472;28;20099;-90
2023/02/09 01:49:07;;;;;;;31.73;14.02;;;;;;;;;;5043418;28;20046;-90
2023/02/09 01:51:54;;;;;;;33.47;13.93;;;;;;;;;;5029538;28;20068;-91
2023/02/09 01:54:27;;;;;;;33.40;14.23;;;;;;;;;;5027712;28;20057;-91
2023/02/09 01:56:58;;;;;;;33.17;13.65;;;;;;;;;;5028036;28;20072;-90
2023/02/09 01:59:27;;;;;;;31.95;13.65;;;;;;;;;;5026282;28;20061;-91
2023/02/09 02:01:54;;;;;;;26.38;13.02;;;;;;;;;;5025940;28;20069;-91
2023/02/09 02:04:24;;;;;;;29.60;13.07;;;;;;;;;;5025652;28;20042;-91
2023/02/09 02:07:02;;;;;;;31.45;13.18;;;;;;;;;;5033600;28;20061;-91
2023/02/09 02:09:29;;;;;;;30.08;14.00;;;;;;;;;;5025609;28;20505;-92
2023/02/09 02:11:57;;;;;;;25.33;12.25;;;;;;;;;;5027069;28;20053;-91
2023/02/09 02:14:28;;;;;;;29.05;14.02;;;;;;;;;;5026061;28;20049;-91
2023/02/09 02:17:06;;;;;;;29.20;13.30;;;;;;;;;;5029710;28;20053;-91
2023/02/09 02:19:46;;;;;;;27.92;13.15;;;;;;;;;;5027148;28;20064;-91
2023/02/09 02:22:22;;;;;;;33.08;13.57;;;;;;;;;;5007823;28;20135;-92
2023/02/09 02:25:11;;;;;;;31.65;13.82;;;;;;;;;;5024963;28;20067;-91
2023/02/09 02:27:59;;;;;;;31.38;13.80;;;;;;;;;;5024837;28;20453;-92
2023/02/09 02:30:46;;;;;;;27.52;12.75;;;;;;;;;;5026237;28;20061;-92
2023/02/09 02:33:20;;;;;;;28.20;12.40;;;;;;;;;;5024645;28;20051;-91
2023/02/09 02:35:54;;;;;;;28.85;12.80;;;;;;;;;;5027074;28;20049;-92
2023/02/09 02:38:33;;;;;;;28.65;12.82;;;;;;;;;;5025167;28;20049;-91
2023/02/09 02:41:04;;;;;;;26.40;11.63;;;;;;;;;;5025575;28;20434;-92
2023/02/09 02:43:32;;;;;;;30.45;12.82;;;;;;;;;;5026490;28;20053;-91
2023/02/09 02:46:01;;;;;;;35.55;12.52;;;;;;;;;;5026938;28;20069;-91
2023/02/09 02:48:37;;;;;;;26.80;12.55;;;;;;;;;;5025096;28;20117;-92
2023/02/09 02:51:10;;;;;;;24.60;12.30;;;;;;;;;;5024618;28;20053;-91
2023/02/09 02:53:40;;;;;;;26.83;12.40;;;;;;;;;;5023770;28;20096;-91
2023/02/09 02:56:13;;;;;;;29.88;13.90;;;;;;;;;;5024427;28;20116;-93
2023/02/09 02:58:43;;;;;;;28.77;12.80;;;;;;;;;;5024101;28;20045;-92
2023/02/09 03:01:12;;;;;;;26.30;11.85;;;;;;;;;;5024270;28;20077;-92
2023/02/09 03:03:41;;;;;;;27.92;12.13;;;;;;;;;;5007894;28;20482;-92
2023/02/09 03:06:09;;;;;;;29.70;12.88;;;;;;;;;;5036089;28;20064;-92
2023/02/09 03:08:48;;;;;;;27.20;11.63;;;;;;;;;;5041380;28;20034;-91
2023/02/09 03:11:16;;;;;;;25.55;12.73;;;;;;;;;;5027848;28;20069;-92
2023/02/09 03:13:58;;;;;;;33.13;13.32;;;;;;;;;;5023273;28;20054;-92
2023/02/09 03:16:36;;;;;;;25.30;11.87;;;;;;;;;;5022815;28;20064;-92
2023/02/09 03:19:08;;;;;;;30.27;12.82;;;;;;;;;;5028191;28;20300;-92
2023/02/09 03:21:41;;;;;;;26.38;9.85;;;;;;;;;;5024158;28;20069;-92
2023/02/09 03:24:20;;;;;;;28.33;11.90;;;;;;;;;;5022991;28;20498;-93
2023/02/09 03:26:53;;;;;;;25.70;11.45;;;;;;;;;;5023294;28;20080;-92
2023/02/09 03:29:22;;;;;;;32.92;13.07;;;;;;;;;;5021662;28;20046;-91
2023/02/09 03:31:50;;;;;;;28.50;12.35;;;;;;;;;;5024355;28;20460;-93
2023/02/09 03:34:18;;;;;;;29.08;12.07;;;;;;;;;;5023867;28;20049;-93
2023/02/09 03:36:53;;;;;;;30.15;12.13;;;;;;;;;;5024659;28;20564;-92
2023/02/09 03:39:21;;;;;;;29.65;12.68;;;;;;;;;;5015999;28;20056;-92
2023/02/09 03:41:48;;;;;;;31.40;11.70;;;;;;;;;;5040269;28;20038;-91
2023/02/09 03:44:25;;;;;;;34.88;12.82;;;;;;;;;;5033715;28;20050;-93
2023/02/09 03:47:00;;;;;;;29.42;12.43;;;;;;;;;;5030289;28;20081;-91
2023/02/09 03:49:30;;;;;;;28.65;12.93;;;;;;;;;;5026941;28;20099;-92
2023/02/09 03:52:01;;;;;;;26.90;11.55;;;;;;;;;;5027282;28;20112;-93
2023/02/09 03:54:30;;;;;;;27.25;11.27;;;;;;;;;;5027039;28;20049;-92
2023/02/09 03:56:58;;;;;;;27.55;12.05;;;;;;;;;;5026412;28;20049;-93
2023/02/09 03:59:26;;;;;;;23.75;11.65;;;;;;;;;;5026326;28;20064;-92
2023/02/09 04:01:54;;;;;;;23.95;12.18;;;;;;;;;;5027135;28;20050;-93
2023/02/09 04:04:25;;;;;;;28.48;11.75;;;;;;;;;;5029927;28;20061;-92
2023/02/09 04:06:53;;;;;;;30.48;13.25;;;;;;;;;;5028381;28;20068;-92
2023/02/09 04:09:20;;;;;;;34.67;13.32;;;;;;;;;;5026463;28;20068;-93
2023/02/09 04:11:48;;;;;;;30.02;14.05;;;;;;;;;;5027132;28;20046;-93
2023/02/09 04:14:15;;;;;;;31.30;12.55;;;;;;;;;;5027308;28;20068;-93
2023/02/09 04:16:43;;;;;;;27.00;11.35;;;;;;;;;;5026984;28;20049;-92
2023/02/09 04:19:12;;;;;;;26.55;12.35;;;;;;;;;;5026874;28;20045;-93
2023/02/09 04:21:39;;;;;;;30.88;13.25;;;;;;;;;;5026252;28;20045;-92
2023/02/09 04:24:08;;;;;;;31.95;15.25;;;;;;;;;;5026543;28;20049;-93
2023/02/09 04:26:35;;;;;;;29.92;14.10;;;;;;;;;;5026180;28;20528;-92
2023/02/09 04:29:04;;;;;;;36.53;15.90;;;;;;;;;;5025995;28;20505;-93
2023/02/09 04:31:33;;;;;;;30.35;13.05;;;;;;;;;;5026118;28;20053;-93
2023/02/09 04:34:01;;;;;;;32.03;12.27;;;;;;;;;;5025968;28;20045;-93
2023/02/09 04:36:28;;;;;;;29.13;12.48;;;;;;;;;;5026133;28;20087;-93
2023/02/09 04:38:56;;;;;;;29.60;12.43;;;;;;;;;;5025640;28;20042;-92
2023/02/09 04:41:24;;;;;;;25.45;11.90;;;;;;;;;;5025989;28;20061;-93
2023/02/09 04:43:51;;;;;;;32.25;13.82;;;;;;;;;;5010051;28;20049;-92
2023/02/09 04:46:20;;;;;;;32.55;13.38;;;;;;;;;;5025289;28;20052;-93
2023/02/09 04:48:47;;;;;;;29.65;12.48;;;;;;;;;;5025345;28;20076;-93
2023/02/09 04:51:14;;;;;;;32.20;13.32;;;;;;;;;;5025373;28;20103;-93
2023/02/09 04:53:44;;;;;;;27.30;11.63;;;;;;;;;;5025891;28;20046;-93
2023/02/09 04:56:15;;;;;;;26.55;12.50;;;;;;;;;;5024934;28;20551;-92
2023/02/09 05:01:32;;;;;;;27.98;12.40;;;;;;;;;;5042971;28;20053;-93
2023/02/09 05:04:00;;;;;;;25.88;12.30;;;;;;;;;;5025179;28;20478;-93
2023/02/09 05:06:27;;;;;;;25.50;11.05;;;;;;;;;;5025305;28;20080;-94
2023/02/09 05:08:55;;;;;;;27.50;12.18;;;;;;;;;;5036537;28;20053;-93
2023/02/09 05:11:22;;;;;;;41.25;17.40;;;;;;;;;;5042190;28;20030;-92
2023/02/09 05:13:51;;;;;;;38.20;17.50;;;;;;;;;;5036322;28;20077;-92
2023/02/09 05:16:19;;;;;;;34.83;14.25;;;;;;;;;;5030877;28;20383;-93
2023/02/09 05:18:49;;;;;;;39.60;15.35;;;;;;;;;;5028507;28;20079;-92
2023/02/09 05:21:17;;;;;;;31.65;13.73;;;;;;;;;;5026947;28;20045;-93
2023/02/09 05:23:45;;;;;;;28.52;13.35;;;;;;;;;;5026906;28;20053;-93
2023/02/09 05:26:12;;;;;;;26.38;12.57;;;;;;;;;;5027193;28;20046;-93
2023/02/09 05:28:40;;;;;;;22.52;11.73;;;;;;;;;;5027323;28;20049;-93
2023/02/09 05:31:09;;;;;;;32.00;13.52;;;;;;;;;;5026848;28;20055;-94
2023/02/09 05:33:39;;;;;;;24.75;12.32;;;;;;;;;;5011812;28;20073;-93
2023/02/09 05:36:08;;;;;;;33.30;14.25;;;;;;;;;;5027012;28;20445;-93
2023/02/09 05:38:36;;;;;;;30.83;14.10;;;;;;;;;;5026813;28;20053;-93
2023/02/09 05:41:09;;;;;;;34.15;13.50;;;;;;;;;;5027229;28;20053;-94
2023/02/09 05:43:37;;;;;;;27.45;12.68;;;;;;;;;;5027178;28;20060;-94
2023/02/09 05:46:06;;;;;;;32.35;13.52;;;;;;;;;;5026886;28;20061;-94
2023/02/09 05:48:34;;;;;;;26.50;12.00;;;;;;;;;;5032031;28;20060;-94
2023/02/09 05:51:03;;;;;;;29.38;12.73;;;;;;;;;;5014742;28;20053;-92
2023/02/09 05:53:31;;;;;;;26.48;12.05;;;;;;;;;;5032850;28;20050;-92
2023/02/09 05:56:01;;;;;;;31.65;12.90;;;;;;;;;;5049003;28;20049;-93
2023/02/09 05:58:31;;;;;;;28.15;12.13;;;;;;;;;;5048442;28;20080;-94
2023/02/09 06:00:59;;;;;;;28.58;12.35;;;;;;;;;;5030417;28;20582;-93
2023/02/09 06:03:33;;;;;;;30.13;13.45;;;;;;;;;;5033084;28;20045;-92
2023/02/09 06:06:01;;;;;;;33.47;13.68;;;;;;;;;;5016276;28;20053;-93
2023/02/09 06:08:31;;;;;;;31.30;12.52;;;;;;;;;;5018645;28;20053;-94
2023/02/09 06:11:02;;;;;;;26.90;13.50;;;;;;;;;;5034632;28;20053;-92
2023/02/09 06:13:30;;;;;;;31.83;12.40;;;;;;;;;;5020227;28;20060;-94
2023/02/09 06:16:13;;;;;;;23.63;11.02;;;;;;;;;;5051850;28;20078;-93
2023/02/09 06:18:41;;;;;;;27.52;12.38;;;;;;;;;;5033711;28;20045;-93
2023/02/09 06:21:11;;;;;;;30.00;11.20;;;;;;;;;;5051063;28;20065;-94
2023/02/09 06:23:43;;;;;;;27.70;11.50;;;;;;;;;;5037478;28;20059;-93
2023/02/09 06:26:24;;;;;;;34.08;12.85;;;;;;;;;;5023920;28;20041;-92
2023/02/09 06:28:55;;;;;;;30.85;12.23;;;;;;;;;;5022640;28;20061;-94
2023/02/09 06:31:23;;;;;;;33.15;13.50;;;;;;;;;;5036886;28;20072;-92
2023/02/09 06:33:51;;;;;;;30.05;12.65;;;;;;;;;;5037638;28;20609;-93
2023/02/09 06:36:19;;;;;;;25.88;12.02;;;;;;;;;;5037077;28;20387;-93
2023/02/09 06:38:46;;;;;;;23.77;10.75;;;;;;;;;;5037541;28;20383;-94
2023/02/09 06:41:14;;;;;;;32.88;11.90;;;;;;;;;;5037517;28;20054;-93
2023/02/09 06:43:41;;;;;;;29.67;12.82;;;;;;;;;;5037367;28;20049;-93
2023/02/09 06:46:10;;;;;;;37.15;13.77;;;;;;;;;;5037387;28;20050;-93
2023/02/09 06:48:39;;;;;;;30.83;12.38;;;;;;;;;;5036692;28;20072;-93
2023/02/09 06:51:12;;;;;;;26.88;13.38;;;;;;;;;;5054152;28;20109;-93
2023/02/09 06:53:53;;;;;;;28.50;12.45;;;;;;;;;;5054181;28;20072;-93
2023/02/09 06:56:29;;;;;;;27.48;10.55;;;;;;;;;;5022786;28;20056;-93
2023/02/09 06:59:05;;;;;;;36.00;13.32;;;;;;;;;;5023341;28;20049;-92
2023/02/09 07:01:33;;;;;;;25.40;11.85;;;;;;;;;;5039578;28;20033;-92
2023/02/09 07:04:01;;;;;;;29.60;10.98;;;;;;;;;;5024693;28;20033;-93
2023/02/09 07:06:43;;;;;;;23.17;10.68;;;;;;;;;;5040080;28;20108;-94
2023/02/09 07:09:25;;;;;;;31.40;12.02;;;;;;;;;;5054331;28;20110;-92
2023/02/09 07:11:52;;;;;;;24.30;10.70;;;;;;;;;;5037517;28;20053;-90
2023/02/09 07:14:20;;;;;;;29.27;12.32;;;;;;;;;;5039552;28;20033;-92
2023/02/09 07:16:48;;;;;;;25.90;11.00;;;;;;;;;;5040358;28;20045;-93
2023/02/09 07:19:16;;;;;;;22.80;11.55;;;;;;;;;;5037694;28;20053;-94
2023/02/09 07:21:47;;;;;;;24.05;11.85;;;;;;;;;;5041172;28;20053;-93
2023/02/09 07:24:28;;;;;;;27.90;12.65;;;;;;;;;;5056783;28;20055;-93
2023/02/09 07:26:57;;;;;;;26.55;12.27;;;;;;;;;;5057208;28;20091;-93
2023/02/09 07:29:30;;;;;;;27.67;12.60;;;;;;;;;;5041309;28;20037;-93
2023/02/09 07:32:11;;;;;;;26.60;13.68;;;;;;;;;;5027286;28;20050;-92
2023/02/09 07:34:43;;;;;;;27.13;11.60;;;;;;;;;;5041082;28;20045;-93
2023/02/09 07:37:24;;;;;;;34.72;12.35;;;;;;;;;;5057155;28;20081;-92
2023/02/09 07:39:56;;;;;;;24.90;11.10;;;;;;;;;;5039693;28;20242;-93
2023/02/09 07:42:38;;;;;;;30.02;12.35;;;;;;;;;;5039077;28;20068;-92
2023/02/09 07:45:22;;;;;;;31.05;12.40;;;;;;;;;;5026478;28;20121;-93
2023/02/09 07:48:03;;;;;;;29.05;12.82;;;;;;;;;;5027731;28;20046;-92
2023/02/09 07:50:34;;;;;;;26.63;11.65;;;;;;;;;;5039972;28;20084;-93
2023/02/09 07:53:16;;;;;;;32.72;12.52;;;;;;;;;;5040074;28;20084;-92
2023/02/09 07:55:57;;;;;;;27.88;13.02;;;;;;;;;;5040834;28;20080;-92
2023/02/09 07:58:27;;;;;;;32.03;13.27;;;;;;;;;;5055746;28;20053;-93
2023/02/09 08:00:57;;;;;;;29.50;13.68;;;;;;;;;;5039906;28;20096;-93
2023/02/09 08:03:40;;;;;;;36.95;16.23;;;;;;;;;;5025792;28;20072;-94
2023/02/09 08:06:42;;;;;;;32.45;14.00;;;;;;;;;;5039404;28;20083;-93
2023/02/09 08:09:15;;;;;;;40.08;18.80;;;;;;;;;;5055020;28;20046;-93
2023/02/09 08:11:58;;;;;;;26.17;12.38;;;;;;;;;;5024367;28;20079;-93
2023/02/09 08:14:33;;;;;;;31.88;14.18;;;;;;;;;;5038315;28;20049;-92
2023/02/09 08:17:22;;;;;;;37.25;15.65;;;;;;;;;;5052250;28;20538;-93
2023/02/09 08:20:08;;;;;;;44.63;18.60;;;;;;;;;;5038863;28;20101;-92
2023/02/09 08:22:42;;;;;;;47.58;21.17;;;;;;;;;;5037848;28;20056;-94
2023/02/09 08:25:18;;;;;;;45.40;20.73;;;;;;;;;;5039155;28;20112;-94
2023/02/09 08:27:59;;;;;;;57.60;23.20;;;;;;;;;;5024480;28;20075;-93
2023/02/09 08:30:27;;;;;;;48.38;21.30;;;;;;;;;;5036867;28;20059;-93
2023/02/09 08:32:57;;;;;;;55.97;23.23;;;;;;;;;;5036849;28;20049;-94
2023/02/09 08:35:39;;;;;;;61.20;24.85;;;;;;;;;;5039284;28;20084;-93
2023/02/09 08:38:16;;;;;;;74.80;27.92;;;;;;;;;;5023193;28;20048;-93
2023/02/09 08:40:46;;;;;;;68.10;26.27;;;;;;;;;;5037271;28;20060;-93
2023/02/09 08:43:16;;;;;;;57.92;24.40;;;;;;;;;;5054202;28;20053;-93
2023/02/09 08:46:02;;;;;;;49.03;19.20;;;;;;;;;;5039642;28;20033;-92
2023/02/09 08:48:44;;;;;;;66.07;26.45;;;;;;;;;;5025050;28;20144;-94
2023/02/09 08:51:13;;;;;;;87.38;29.33;;;;;;;;;;5037245;28;20054;-91
2023/02/09 08:53:54;;;;;;;136.68;33.47;;;;;;;;;;5025371;28;20123;-91
2023/02/09 08:56:36;;;;;;;140.43;33.38;;;;;;;;;;5038985;28;20049;-91
2023/02/09 08:59:03;;;;;;;119.28;33.25;;;;;;;;;;5038225;28;20053;-90
2023/02/09 09:01:31;;;;;;;75.95;26.08;;;;;;;;;;5037839;28;20121;-89
2023/02/09 09:03:58;;;;;;;61.20;25.75;;;;;;;;;;5053016;28;20056;-87
2023/02/09 09:06:26;;;;;;;78.85;21.17;;;;;;;;;;5033767;28;20049;-88
2023/02/09 09:08:53;;;;;;;51.65;20.90;;;;;;;;;;5031099;28;20109;-88
2023/02/09 09:11:21;;;;;;;39.53;17.92;;;;;;;;;;5029912;28;20049;-87
2023/02/09 09:13:48;;;;;;;129.93;25.80;;;;;;;;;;5034162;28;20136;-87
2023/02/09 09:16:17;;;;;;;199.48;27.52;;;;;;;;;;5037584;28;20053;-87
2023/02/09 09:18:45;;;;;;;169.00;25.77;;;;;;;;;;5041155;28;20029;-85
2023/02/09 09:21:13;;;;;;;52.40;15.50;;;;;;;;;;5040509;28;20057;-86
2023/02/09 09:23:40;;;;;;;208.05;24.20;;;;;;;;;;5034499;28;20071;-85
2023/02/09 09:26:08;;;;;;;40.72;12.57;;;;;;;;;;5032895;28;20117;-85
2023/02/09 09:28:36;;;;;;;58.05;11.63;;;;;;;;;;5033618;28;20073;-86
2023/02/09 09:31:09;;;;;;;84.13;15.52;;;;;;;;;;5033135;28;20056;-85
2023/02/09 09:33:37;;;;;;;46.58;11.15;;;;;;;;;;5033950;28;20057;-85
2023/02/09 09:36:07;;;;;;;51.08;10.25;;;;;;;;;;5050861;28;20046;-85
2023/02/09 09:38:35;;;;;;;20.60;8.02;;;;;;;;;;5050965;28;20045;-85
2023/02/09 09:41:03;;;;;;;46.40;10.35;;;;;;;;;;5034378;28;20045;-85
2023/02/09 09:43:35;;;;;;;43.80;10.77;;;;;;;;;;5033716;28;20053;-85
2023/02/09 09:46:04;;;;;;;39.95;9.43;;;;;;;;;;5033702;28;20049;-86
2023/02/09 09:48:40;;;;;;;46.53;10.50;;;;;;;;;;5034109;28;20049;-85
2023/02/09 09:51:12;;;;;;;27.40;7.13;;;;;;;;;;5034056;28;20457;-86
2023/02/09 09:53:41;;;;;;;12.88;5.50;;;;;;;;;;5034222;28;20060;-85
2023/02/09 09:56:09;;;;;;;31.00;7.45;;;;;;;;;;5034210;28;20056;-85
2023/02/09 09:58:39;;;;;;;18.10;6.95;;;;;;;;;;5033394;28;20053;-85
2023/02/09 10:01:11;;;;;;;20.88;7.22;;;;;;;;;;5050310;28;20068;-85
2023/02/09 10:03:38;;;;;;;8.98;5.63;;;;;;;;;;5033459;28;20049;-85
2023/02/09 10:06:16;;;;;;;67.45;10.00;;;;;;;;;;5033303;28;20117;-86
2023/02/09 10:08:47;;;;;;;5.43;4.28;;;;;;;;;;5033658;28;20049;-86
2023/02/09 10:11:16;;;;;;;18.13;5.72;;;;;;;;;;5049846;28;20112;-86
2023/02/09 10:13:51;;;;;;;19.73;5.68;;;;;;;;;;5032056;28;20054;-85
2023/02/09 10:16:20;;;;;;;6.60;5.03;;;;;;;;;;5032803;28;20077;-85
2023/02/09 10:18:51;;;;;;;25.45;5.50;;;;;;;;;;5030999;28;20060;-86
2023/02/09 10:21:19;;;;;;;7.07;4.50;;;;;;;;;;5030633;28;20405;-84
2023/02/09 10:23:49;;;;;;;8.63;5.00;;;;;;;;;;5049298;28;20053;-86
2023/02/09 10:26:21;;;;;;;5.72;4.68;;;;;;;;;;5051447;28;20073;-85
2023/02/09 10:28:50;;;;;;;7.32;5.20;;;;;;;;;;5052198;28;20050;-85
2023/02/09 10:31:31;;;;;;;18.52;5.97;;;;;;;;;;5035753;28;20092;-83
2023/02/09 10:34:01;;;;;;;6.47;5.00;;;;;;;;;;5053690;28;20449;-85
2023/02/09 10:36:33;;;;;;;5.57;4.45;;;;;;;;;;5052651;28;20081;-85
2023/02/09 10:39:23;;;;;;;10.50;5.00;;;;;;;;;;5052706;28;20073;-85
2023/02/09 10:41:53;;;;;;;6.75;5.10;;;;;;;;;;5028232;28;20075;-85
2023/02/09 10:44:25;;;;;;;10.75;5.03;;;;;;;;;;5053360;28;20049;-84
2023/02/09 10:47:09;;;;;;;7.15;4.53;;;;;;;;;;5035882;28;20080;-85
2023/02/09 10:49:41;;;;;;;15.38;5.32;;;;;;;;;;5052307;28;20104;-84
2023/02/09 10:52:12;;;;;;;6.28;4.80;;;;;;;;;;5035183;28;20068;-84
2023/02/09 10:54:44;;;;;;;7.07;5.53;;;;;;;;;;5036026;28;20053;-85
2023/02/09 10:57:28;;;;;;;11.82;5.68;;;;;;;;;;5038905;28;20036;-83
2023/02/09 10:59:56;;;;;;;24.83;6.28;;;;;;;;;;5039888;28;20063;-83
2023/02/09 11:02:42;;;;;;;17.52;5.70;;;;;;;;;;5039443;28;20114;-84
2023/02/09 11:05:29;;;;;;;6.05;4.88;;;;;;;;;;5057742;28;20048;-82
2023/02/09 11:08:18;;;;;;;11.98;5.40;;;;;;;;;;5039575;28;20053;-84
2023/02/09 11:10:49;;;;;;;10.90;5.35;;;;;;;;;;5038650;28;20046;-83
2023/02/09 11:13:24;;;;;;;7.43;5.00;;;;;;;;;;5039133;28;20121;-84
2023/02/09 11:16:00;;;;;;;9.90;5.53;;;;;;;;;;5039898;28;20076;-84
2023/02/09 11:18:29;;;;;;;11.27;5.13;;;;;;;;;;5040012;28;20045;-84
2023/02/09 11:21:04;;;;;;;11.05;5.22;;;;;;;;;;5043790;28;20080;-84
2023/02/09 11:23:42;;;;;;;11.93;5.22;;;;;;;;;;5045303;28;20034;-82
2023/02/09 11:26:09;;;;;;;14.27;6.03;;;;;;;;;;5040988;28;20088;-84
2023/02/09 11:28:59;;;;;;;9.45;4.97;;;;;;;;;;5039555;28;20073;-82
2023/02/09 11:31:32;;;;;;;6.60;5.00;;;;;;;;;;5056041;28;20049;-83
2023/02/09 11:34:10;;;;;;;38.95;8.45;;;;;;;;;;5039585;28;20046;-83
2023/02/09 11:36:41;;;;;;;45.70;9.02;;;;;;;;;;5039664;28;20057;-85
2023/02/09 11:39:13;;;;;;;8.05;5.13;;;;;;;;;;5058107;28;20049;-84
2023/02/09 11:44:37;;;;;;;18.77;6.70;;;;;;;;;;5058596;28;20077;-84
2023/02/09 11:47:06;;;;;;;18.55;5.40;;;;;;;;;;5040504;28;20049;-85
2023/02/09 11:49:40;;;;;;;6.20;4.80;;;;;;;;;;5056752;28;20053;-85
2023/02/09 11:52:08;;;;;;;8.65;4.78;;;;;;;;;;5057509;28;20061;-84
2023/02/09 11:54:36;;;;;;;7.72;4.72;;;;;;;;;;5057915;28;20054;-85
2023/02/09 11:57:12;;;;;;;6.05;5.10;;;;;;;;;;5040929;28;20049;-85
2023/02/09 11:59:45;;;;;;;8.27;6.57;;;;;;;;;;5040295;28;20080;-84
2023/02/09 12:02:18;;;;;;;20.08;6.43;;;;;;;;;;5057830;28;20049;-85
2023/02/09 12:04:54;;;;;;;12.80;4.82;;;;;;;;;;5040604;28;20059;-84
2023/02/09 12:07:24;;;;;;;14.35;5.53;;;;;;;;;;5040270;28;20053;-84
2023/02/09 12:10:03;;;;;;;6.43;4.78;;;;;;;;;;5041353;28;20050;-84
2023/02/09 12:12:32;;;;;;;11.05;5.07;;;;;;;;;;5040537;28;20105;-84
2023/02/09 12:15:10;;;;;;;6.80;5.35;;;;;;;;;;5057431;28;20097;-85
2023/02/09 12:17:46;;;;;;;13.25;5.85;;;;;;;;;;5040110;28;20470;-84
2023/02/09 12:20:27;;;;;;;9.85;5.70;;;;;;;;;;5040585;28;20049;-85
2023/02/09 12:23:01;;;;;;;7.05;5.47;;;;;;;;;;5039581;28;20050;-85
2023/02/09 12:25:36;;;;;;;7.00;5.47;;;;;;;;;;5057276;28;20061;-85
2023/02/09 12:28:09;;;;;;;20.83;6.57;;;;;;;;;;5057338;28;20049;-85
2023/02/09 12:30:40;;;;;;;7.97;4.72;;;;;;;;;;5057277;28;20045;-84
2023/02/09 12:33:28;;;;;;;12.30;6.20;;;;;;;;;;5057531;28;20080;-85
2023/02/09 12:36:05;;;;;;;10.93;5.70;;;;;;;;;;5040689;28;20046;-85
2023/02/09 12:38:50;;;;;;;6.82;5.05;;;;;;;;;;5040368;28;20057;-85
2023/02/09 12:41:23;;;;;;;13.13;6.28;;;;;;;;;;5041149;28;20105;-85
2023/02/09 12:44:24;;;;;;;16.60;7.18;;;;;;;;;;5040455;28;20033;-85
2023/02/09 12:46:54;;;;;;;8.95;5.18;;;;;;;;;;5008137;28;20049;-85
2023/02/09 12:49:31;;;;;;;7.57;5.25;;;;;;;;;;5039857;28;20046;-85
2023/02/09 12:52:02;;;;;;;8.68;5.82;;;;;;;;;;5056166;28;20045;-84
2023/02/09 12:54:32;;;;;;;7.43;5.05;;;;;;;;;;5038299;28;20053;-84
2023/02/09 12:57:15;;;;;;;12.02;5.72;;;;;;;;;;5056754;28;20056;-84
2023/02/09 12:59:49;;;;;;;9.73;6.27;;;;;;;;;;5037025;28;20409;-85
2023/02/09 13:02:23;;;;;;;6.53;4.95;;;;;;;;;;5038488;28;20041;-85
2023/02/09 13:05:11;;;;;;;11.25;5.85;;;;;;;;;;5036267;28;20401;-85
2023/02/09 13:07:52;;;;;;;13.32;5.63;;;;;;;;;;5051504;28;20057;-85
2023/02/09 13:10:35;;;;;;;9.73;5.85;;;;;;;;;;5036238;28;20049;-85
2023/02/09 13:13:05;;;;;;;15.93;6.50;;;;;;;;;;5037658;28;20064;-85
2023/02/09 13:15:43;;;;;;;7.97;5.68;;;;;;;;;;5036729;28;20049;-85
2023/02/09 13:18:19;;;;;;;19.15;6.78;;;;;;;;;;5054871;28;20046;-85
2023/02/09 13:20:49;;;;;;;9.93;6.00;;;;;;;;;;5058625;28;20045;-85
2023/02/09 13:23:16;;;;;;;9.77;5.50;;;;;;;;;;5059796;28;20037;-84
2023/02/09 13:25:45;;;;;;;14.80;5.90;;;;;;;;;;5054257;28;20104;-85
2023/02/09 13:28:18;;;;;;;14.05;6.30;;;;;;;;;;5050435;28;20112;-84
2023/02/09 13:30:46;;;;;;;16.00;6.28;;;;;;;;;;5049671;28;20057;-85
2023/02/09 13:33:25;;;;;;;8.20;5.80;;;;;;;;;;5032428;28;20037;-85
2023/02/09 13:36:01;;;;;;;8.88;5.65;;;;;;;;;;5049479;28;20112;-85
2023/02/09 13:38:34;;;;;;;8.40;5.63;;;;;;;;;;5033169;28;20057;-85
2023/02/09 13:41:02;;;;;;;11.18;5.88;;;;;;;;;;5050127;28;20045;-85
2023/02/09 13:43:31;;;;;;;11.02;6.00;;;;;;;;;;5049395;28;20049;-84
2023/02/09 13:46:00;;;;;;;9.15;5.78;;;;;;;;;;5049532;28;20049;-85
2023/02/09 13:48:28;;;;;;;14.05;6.80;;;;;;;;;;5032746;28;20113;-85
2023/02/09 13:50:56;;;;;;;8.02;6.13;;;;;;;;;;5049604;28;20064;-86
2023/02/09 13:53:25;;;;;;;11.65;5.82;;;;;;;;;;5032304;28;20045;-85
2023/02/09 13:55:54;;;;;;;11.13;6.28;;;;;;;;;;5033006;28;20076;-83
2023/02/09 13:58:26;;;;;;;8.95;6.13;;;;;;;;;;5032082;28;20045;-82
2023/02/09 14:01:20;;;;;;;12.38;6.22;;;;;;;;;;5049366;28;20678;-82
2023/02/09 14:03:51;;;;;;;14.33;7.07;;;;;;;;;;5047633;28;20052;-82
2023/02/09 14:06:33;;;;;;;10.40;6.13;;;;;;;;;;5049508;28;20045;-82
2023/02/09 14:09:03;;;;;;;9.80;6.30;;;;;;;;;;5030759;28;20049;-82
2023/02/09 14:11:39;;;;;;;34.55;8.30;;;;;;;;;;5031616;28;20084;-83
2023/02/09 14:14:14;;;;;;;18.17;6.70;;;;;;;;;;5032198;28;20050;-83
2023/02/09 14:16:42;;;;;;;19.33;6.35;;;;;;;;;;5049000;28;20045;-82
2023/02/09 14:19:32;;;;;;;8.45;5.78;;;;;;;;;;5033472;28;20053;-82
2023/02/09 14:21:59;;;;;;;50.78;8.93;;;;;;;;;;5032346;28;20076;-82
2023/02/09 14:24:27;;;;;;;42.53;8.32;;;;;;;;;;5031674;28;20110;-83
2023/02/09 14:27:03;;;;;;;10.30;6.25;;;;;;;;;;5049991;28;20041;-83
2023/02/09 14:29:32;;;;;;;8.48;6.40;;;;;;;;;;5032941;28;20060;-83
2023/02/09 14:32:04;;;;;;;6.85;5.97;;;;;;;;;;5033205;28;20104;-82
2023/02/09 14:34:34;;;;;;;9.85;6.88;;;;;;;;;;5050435;28;20076;-82
2023/02/09 14:37:10;;;;;;;84.82;10.68;;;;;;;;;;5032811;28;20049;-82
2023/02/09 14:39:53;;;;;;;70.57;10.10;;;;;;;;;;5030298;28;20075;-82
2023/02/09 14:42:20;;;;;;;12.48;6.90;;;;;;;;;;5030859;28;20042;-85
2023/02/09 14:44:53;;;;;;;10.05;6.53;;;;;;;;;;5033621;28;20056;-85
2023/02/09 14:47:27;;;;;;;24.10;6.90;;;;;;;;;;5049414;28;20099;-85
2023/02/09 14:49:55;;;;;;;66.55;11.07;;;;;;;;;;5033351;28;20046;-85
2023/02/09 14:52:27;;;;;;;11.13;6.68;;;;;;;;;;5032489;28;20053;-85
2023/02/09 14:54:56;;;;;;;10.52;6.93;;;;;;;;;;5032938;28;20050;-85
2023/02/09 14:57:25;;;;;;;16.95;7.15;;;;;;;;;;5033244;28;20132;-85
2023/02/09 14:59:54;;;;;;;17.52;7.03;;;;;;;;;;5049851;28;20087;-85
2023/02/09 15:02:25;;;;;;;13.27;6.95;;;;;;;;;;5031785;28;20049;-85
2023/02/09 15:04:54;;;;;;;24.52;8.73;;;;;;;;;;5032192;28;20050;-85